AIRPORT ID: 74S

DATE: 2021-12-01 ZULU TIME: 15.5 LOCAL TIME: 7.5


METAR K74S 011550Z AUTO 11017G29KT 070V150 10SM 12/11 A3011

ALTIMETER: A3011 Q1020

DENSITY ALT: -200 Ft

WIND DIRECT: 130

WIND SPEED: 17 Gust

WIND CONDITIONS:

VISIBILTY: 10SM 9999M

TEMPERATURE: 54 F 12 C

DEW POINT: 51 F 11 C

HUMID: 88%

LCL: 500-1,000 feet

RADIO CHECK: 1

ADVISARIES: 2

GREETINGS: 0

CONVERSATIONS: 0